Time;durP1;ratioP1;P1;durP2;ratioP2;P2;SDS_P1;SDS_P2;PMS_P1;PMS_P2;Temp;Humidity;BMP_temperature;BMP_pressure;BME280_temperature;BME280_humidity;BME280_pressure;Samples;Min_cycle;Max_cycle;Signal;HPM_P1;HPM_P2
2021/05/27 00:00:06;;;;;;;8.85;4.13;;;;;;;;;;5110334;27;20412;-70
2021/05/27 00:02:32;;;;;;;8.30;4.85;;;;;;;;;;5110517;28;20090;-70
2021/05/27 00:04:58;;;;;;;10.93;4.82;;;;;;;;;;5110066;28;20020;-70
2021/05/27 00:07:25;;;;;;;7.32;4.47;;;;;;;;;;5125810;28;20020;-70
2021/05/27 00:09:51;;;;;;;7.68;4.38;;;;;;;;;;5110157;28;20023;-70
2021/05/27 00:14:08;;;;;;;8.60;4.93;;;;;;;;;;5110426;27;20509;-70
2021/05/27 00:16:34;;;;;;;10.55;5.20;;;;;;;;;;5110261;28;20032;-69
2021/05/27 00:19:01;;;;;;;10.10;4.70;;;;;;;;;;5109896;28;20043;-69
2021/05/27 00:21:27;;;;;;;7.47;4.53;;;;;;;;;;5109118;28;20502;-69
2021/05/27 00:25:16;;;;;;;6.65;3.95;;;;;;;;;;5110322;27;20456;-71
2021/05/27 00:27:43;;;;;;;7.07;3.63;;;;;;;;;;5110007;28;20361;-71
2021/05/27 00:33:21;;;;;;;9.73;4.03;;;;;;;;;;5130236;27;20692;-70
2021/05/27 00:35:47;;;;;;;8.10;4.32;;;;;;;;;;5110286;28;20468;-70
2021/05/27 00:38:13;;;;;;;6.30;4.20;;;;;;;;;;5110182;28;20411;-70
2021/05/27 00:40:40;;;;;;;11.80;4.57;;;;;;;;;;5091731;28;20055;-70
2021/05/27 00:43:33;;;;;;;7.60;4.30;;;;;;;;;;5110439;27;20457;-69
2021/05/27 00:45:59;;;;;;;6.75;3.75;;;;;;;;;;5110254;28;20035;-70
2021/05/27 00:51:11;;;;;;;7.78;3.80;;;;;;;;;;5110262;28;20388;-70
2021/05/27 00:53:37;;;;;;;7.93;4.43;;;;;;;;;;5108389;28;20050;-70
2021/05/27 00:57:44;;;;;;;8.88;4.30;;;;;;;;;;5110261;27;20397;-70
2021/05/27 01:00:12;;;;;;;8.23;3.70;;;;;;;;;;5110409;28;20028;-70
2021/05/27 01:02:38;;;;;;;8.05;4.55;;;;;;;;;;5108791;28;20032;-70
2021/05/27 01:05:08;;;;;;;6.90;3.72;;;;;;;;;;5110343;28;20024;-70
2021/05/27 01:09:07;;;;;;;7.72;4.55;;;;;;;;;;5069532;28;20400;-70
2021/05/27 01:11:33;;;;;;;7.97;4.13;;;;;;;;;;5069824;28;20024;-69
2021/05/27 01:17:31;;;;;;;7.57;4.07;;;;;;;;;;5110285;27;20389;-70
2021/05/27 01:19:58;;;;;;;7.80;4.50;;;;;;;;;;5110508;28;20038;-69
2021/05/27 01:22:25;;;;;;;12.00;4.20;;;;;;;;;;5109984;28;20077;-69
2021/05/27 01:25:16;;;;;;;7.65;4.00;;;;;;;;;;5110330;27;20397;-70
2021/05/27 01:27:43;;;;;;;10.45;4.00;;;;;;;;;;5110343;28;20024;-71
2021/05/27 01:32:33;;;;;;;7.47;4.10;;;;;;;;;;5050467;28;20401;-71
2021/05/27 01:35:00;;;;;;;7.55;4.22;;;;;;;;;;5050082;28;20030;-70
2021/05/27 01:38:31;;;;;;;7.25;3.95;;;;;;;;;;5069836;28;20492;-70
2021/05/27 01:41:02;;;;;;;8.75;5.07;;;;;;;;;;5069877;28;20036;-71
2021/05/27 01:43:28;;;;;;;10.07;4.68;;;;;;;;;;5068054;28;20020;-71
2021/05/27 01:45:55;;;;;;;8.77;4.82;;;;;;;;;;5069686;28;20358;-70
2021/05/27 01:48:21;;;;;;;11.80;5.25;;;;;;;;;;5069687;28;20048;-72
2021/05/27 01:54:40;;;;;;;11.57;5.18;;;;;;;;;;5110303;27;20761;-70
2021/05/27 01:57:06;;;;;;;11.27;5.80;;;;;;;;;;5109846;28;20028;-70
2021/05/27 02:03:22;;;;;;;8.43;4.30;;;;;;;;;;5110391;27;20453;-70
2021/05/27 02:07:44;;;;;;;13.35;5.65;;;;;;;;;;5110236;27;20469;-70
2021/05/27 02:10:11;;;;;;;7.20;4.38;;;;;;;;;;5110258;28;20107;-69
2021/05/27 02:12:38;;;;;;;8.27;4.80;;;;;;;;;;5109864;28;20432;-69
2021/05/27 02:16:03;;;;;;;7.93;4.47;;;;;;;;;;5110389;27;20393;-69
2021/05/27 02:18:29;;;;;;;9.57;4.78;;;;;;;;;;5109970;28;20437;-69
2021/05/27 02:20:55;;;;;;;11.13;4.70;;;;;;;;;;5110414;28;20099;-69
2021/05/27 02:25:08;;;;;;;8.35;4.70;;;;;;;;;;5109845;27;20373;-69
2021/05/27 02:27:34;;;;;;;7.80;4.43;;;;;;;;;;5110265;28;20041;-69
2021/05/27 02:30:00;;;;;;;7.18;4.18;;;;;;;;;;5108908;28;20114;-70
2021/05/27 02:32:27;;;;;;;8.68;4.57;;;;;;;;;;5108724;28;20024;-70
2021/05/27 02:35:17;;;;;;;7.85;4.45;;;;;;;;;;5130714;27;20311;-70
2021/05/27 02:39:35;;;;;;;9.18;4.45;;;;;;;;;;5069475;28;20418;-70
2021/05/27 02:42:27;;;;;;;7.65;4.53;;;;;;;;;;5110417;27;20739;-69
2021/05/27 02:44:53;;;;;;;7.60;3.90;;;;;;;;;;5110288;28;20104;-70
2021/05/27 02:47:19;;;;;;;9.15;4.57;;;;;;;;;;5109786;28;20051;-69
2021/05/27 02:49:45;;;;;;;8.10;4.70;;;;;;;;;;5110258;28;20024;-70
2021/05/27 02:54:17;;;;;;;9.38;5.07;;;;;;;;;;5109955;27;20745;-70
2021/05/27 02:56:43;;;;;;;8.77;4.88;;;;;;;;;;5126075;28;20042;-70
2021/05/27 02:59:10;;;;;;;8.95;4.90;;;;;;;;;;5126268;28;20105;-69
2021/05/27 03:01:36;;;;;;;8.80;4.57;;;;;;;;;;5109978;28;20427;-70
2021/05/27 03:04:02;;;;;;;7.65;4.45;;;;;;;;;;5110126;28;20107;-70
2021/05/27 03:06:28;;;;;;;7.88;4.40;;;;;;;;;;5110185;28;20035;-70
2021/05/27 03:08:54;;;;;;;6.75;4.20;;;;;;;;;;5109757;28;20027;-70
2021/05/27 03:11:21;;;;;;;9.32;4.55;;;;;;;;;;5126137;28;20038;-70
2021/05/27 03:13:48;;;;;;;7.35;4.30;;;;;;;;;;5126031;28;20499;-70
2021/05/27 03:16:14;;;;;;;10.43;4.70;;;;;;;;;;5109543;28;20031;-69
2021/05/27 03:18:41;;;;;;;7.70;4.18;;;;;;;;;;5110009;28;20046;-70
2021/05/27 03:21:07;;;;;;;7.60;4.22;;;;;;;;;;5110065;28;20024;-70
2021/05/27 03:29:13;;;;;;;6.40;3.97;;;;;;;;;;5109982;27;20413;-70
2021/05/27 03:31:39;;;;;;;9.43;4.80;;;;;;;;;;5110684;28;20422;-70
2021/05/27 03:34:05;;;;;;;16.75;9.80;;;;;;;;;;5125981;28;20046;-70
2021/05/27 03:37:41;;;;;;;10.60;6.85;;;;;;;;;;5109983;27;20393;-70
2021/05/27 03:40:14;;;;;;;9.23;5.13;;;;;;;;;;5110505;28;20028;-70
2021/05/27 03:42:41;;;;;;;10.95;5.25;;;;;;;;;;5108663;28;20052;-69
2021/05/27 03:50:15;;;;;;;9.55;5.10;;;;;;;;;;5109955;27;20465;-70
2021/05/27 03:52:41;;;;;;;11.75;4.93;;;;;;;;;;5110375;28;20024;-71
2021/05/27 03:55:09;;;;;;;8.27;4.13;;;;;;;;;;5110219;28;20047;-70
2021/05/27 03:57:35;;;;;;;10.05;4.80;;;;;;;;;;5109845;28;20424;-70
2021/05/27 04:02:48;;;;;;;8.73;4.10;;;;;;;;;;5110522;28;20035;-70
2021/05/27 04:11:06;;;;;;;8.20;4.60;;;;;;;;;;5109887;27;20800;-70
2021/05/27 04:15:29;;;;;;;8.50;5.15;;;;;;;;;;5130839;27;20847;-69
2021/05/27 04:19:06;;;;;;;8.68;4.85;;;;;;;;;;5110249;27;20453;-70
2021/05/27 04:21:32;;;;;;;7.60;4.80;;;;;;;;;;5110510;28;20023;-70
2021/05/27 04:23:58;;;;;;;9.80;4.43;;;;;;;;;;5110432;28;20051;-70
2021/05/27 04:26:25;;;;;;;8.82;4.55;;;;;;;;;;5109934;28;20024;-69
2021/05/27 04:28:51;;;;;;;8.18;4.78;;;;;;;;;;5110264;28;20028;-70
2021/05/27 04:34:00;;;;;;;7.57;4.18;;;;;;;;;;5110439;27;21000;-70
2021/05/27 04:36:27;;;;;;;7.88;4.45;;;;;;;;;;5110432;28;20032;-70
2021/05/27 04:38:54;;;;;;;10.88;4.88;;;;;;;;;;5110095;28;20102;-70
2021/05/27 04:41:21;;;;;;;7.72;4.05;;;;;;;;;;5126271;28;20064;-70
2021/05/27 04:45:05;;;;;;;7.93;4.13;;;;;;;;;;5090844;27;20398;-69
2021/05/27 04:47:31;;;;;;;7.30;4.47;;;;;;;;;;5105230;28;20026;-70
2021/05/27 04:49:57;;;;;;;17.15;4.53;;;;;;;;;;5089942;28;20020;-69
2021/05/27 04:53:22;;;;;;;10.85;4.50;;;;;;;;;;5110134;27;20390;-69
2021/05/27 04:55:49;;;;;;;10.68;5.05;;;;;;;;;;5110431;28;20035;-69
2021/05/27 04:58:15;;;;;;;11.30;4.85;;;;;;;;;;5110571;28;20048;-68
2021/05/27 05:00:41;;;;;;;8.45;4.78;;;;;;;;;;5110290;28;20034;-68
2021/05/27 05:04:22;;;;;;;15.35;5.57;;;;;;;;;;5069815;28;20419;-68
2021/05/27 05:08:53;;;;;;;7.43;4.97;;;;;;;;;;5110006;27;20473;-67
2021/05/27 05:11:19;;;;;;;11.27;4.72;;;;;;;;;;5108892;28;20031;-68
2021/05/27 05:16:13;;;;;;;8.48;4.40;;;;;;;;;;5110415;27;20981;-67
2021/05/27 05:18:59;;;;;;;7.50;4.20;;;;;;;;;;5110345;27;20916;-68
2021/05/27 05:23:00;;;;;;;7.70;4.15;;;;;;;;;;5110048;27;20450;-67
2021/05/27 05:25:54;;;;;;;8.25;4.45;;;;;;;;;;5110379;27;20420;-68
2021/05/27 05:28:20;;;;;;;8.32;4.18;;;;;;;;;;5108707;28;20081;-68
2021/05/27 05:30:47;;;;;;;13.05;5.63;;;;;;;;;;5110172;28;20027;-68
2021/05/27 05:33:45;;;;;;;8.20;4.45;;;;;;;;;;5085339;28;20481;-68
2021/05/27 05:36:11;;;;;;;10.13;4.03;;;;;;;;;;5069429;28;20025;-68
2021/05/27 05:38:37;;;;;;;7.70;4.00;;;;;;;;;;5069891;28;20025;-67
2021/05/27 05:41:04;;;;;;;7.10;3.90;;;;;;;;;;5068584;28;20422;-69
2021/05/27 05:43:30;;;;;;;12.75;4.80;;;;;;;;;;5067679;28;20017;-68
2021/05/27 05:45:56;;;;;;;9.00;5.07;;;;;;;;;;5064012;28;20029;-65
2021/05/27 05:49:41;;;;;;;7.03;4.00;;;;;;;;;;5067369;28;20383;-68
2021/05/27 05:52:07;;;;;;;7.50;3.83;;;;;;;;;;5064905;28;20623;-68
2021/05/27 05:54:34;;;;;;;10.23;4.50;;;;;;;;;;5066446;28;20024;-69
2021/05/27 05:58:40;;;;;;;11.25;6.18;;;;;;;;;;5110135;27;20873;-67
2021/05/27 06:02:18;;;;;;;6.07;3.58;;;;;;;;;;5092278;27;20467;-67
2021/05/27 06:04:45;;;;;;;6.97;4.13;;;;;;;;;;5091084;28;20118;-67
2021/05/27 06:07:11;;;;;;;6.88;3.83;;;;;;;;;;5106652;28;20030;-68
2021/05/27 06:09:38;;;;;;;8.48;4.45;;;;;;;;;;5106871;28;20016;-67
2021/05/27 06:13:06;;;;;;;8.40;4.25;;;;;;;;;;5108161;27;21026;-66
2021/05/27 06:15:32;;;;;;;6.53;3.58;;;;;;;;;;5103521;28;20023;-66
2021/05/27 06:18:00;;;;;;;6.68;3.42;;;;;;;;;;5107781;28;20027;-66
2021/05/27 06:21:08;;;;;;;7.13;3.78;;;;;;;;;;5128833;27;20309;-67
2021/05/27 06:23:35;;;;;;;10.18;5.10;;;;;;;;;;5106680;28;20024;-66
2021/05/27 06:26:02;;;;;;;7.75;4.10;;;;;;;;;;5107393;28;20030;-70
2021/05/27 06:29:25;;;;;;;7.45;3.50;;;;;;;;;;5109674;27;20410;-68
2021/05/27 06:31:51;;;;;;;11.02;4.15;;;;;;;;;;5109547;28;20070;-70
2021/05/27 06:35:53;;;;;;;6.38;3.70;;;;;;;;;;5068993;28;20388;-69
2021/05/27 06:38:19;;;;;;;7.68;4.25;;;;;;;;;;5068983;28;20032;-69
2021/05/27 06:41:37;;;;;;;6.80;4.13;;;;;;;;;;5069031;28;20420;-70
2021/05/27 06:46:03;;;;;;;10.65;4.25;;;;;;;;;;5171751;27;20314;-69
2021/05/27 06:48:29;;;;;;;7.63;3.83;;;;;;;;;;5151306;27;20035;-69
2021/05/27 06:50:55;;;;;;;7.05;4.03;;;;;;;;;;5132674;27;20114;-69
2021/05/27 06:53:22;;;;;;;9.35;4.15;;;;;;;;;;5150835;27;20027;-69
2021/05/27 06:55:48;;;;;;;8.02;4.22;;;;;;;;;;5150240;27;20467;-69
2021/05/27 06:58:35;;;;;;;7.40;3.92;;;;;;;;;;5151401;27;20465;-71
2021/05/27 07:01:01;;;;;;;10.75;4.53;;;;;;;;;;5111929;28;20096;-70
2021/05/27 07:03:28;;;;;;;7.25;4.18;;;;;;;;;;5130677;28;20043;-70
2021/05/27 07:05:55;;;;;;;7.85;4.07;;;;;;;;;;5111931;28;20028;-71
2021/05/27 07:08:21;;;;;;;9.63;4.13;;;;;;;;;;5130083;28;20020;-70
2021/05/27 07:10:47;;;;;;;6.78;4.18;;;;;;;;;;5130373;28;20023;-72
2021/05/27 07:13:13;;;;;;;7.00;4.35;;;;;;;;;;5130431;28;20071;-67
2021/05/27 07:17:24;;;;;;;8.60;4.15;;;;;;;;;;5109777;27;20389;-66
2021/05/27 07:19:52;;;;;;;7.35;4.25;;;;;;;;;;5110227;28;20028;-66
2021/05/27 07:23:40;;;;;;;13.15;5.18;;;;;;;;;;5110107;27;20469;-66
2021/05/27 07:26:07;;;;;;;9.63;4.25;;;;;;;;;;5110279;28;20031;-67
2021/05/27 07:28:33;;;;;;;9.02;5.15;;;;;;;;;;5109520;28;20024;-67
2021/05/27 07:31:01;;;;;;;12.32;5.72;;;;;;;;;;5108748;28;20020;-67
2021/05/27 07:33:29;;;;;;;7.28;3.85;;;;;;;;;;5109863;28;20103;-65
2021/05/27 07:35:55;;;;;;;9.73;5.60;;;;;;;;;;5099658;28;20063;-66
2021/05/27 07:38:21;;;;;;;9.68;4.80;;;;;;;;;;5105677;28;20095;-67
2021/05/27 07:40:47;;;;;;;8.35;4.72;;;;;;;;;;5109379;28;20027;-67
2021/05/27 07:43:14;;;;;;;7.85;3.95;;;;;;;;;;5109459;28;20035;-67
2021/05/27 07:45:40;;;;;;;9.00;4.35;;;;;;;;;;5104614;28;20056;-68
2021/05/27 07:48:07;;;;;;;9.55;4.32;;;;;;;;;;5104172;28;20027;-66
2021/05/27 07:50:33;;;;;;;6.45;4.28;;;;;;;;;;5108527;28;20048;-67
2021/05/27 07:53:00;;;;;;;10.25;4.82;;;;;;;;;;5108709;28;20028;-67
2021/05/27 07:55:26;;;;;;;9.40;4.55;;;;;;;;;;5108873;28;20361;-67
2021/05/27 07:57:54;;;;;;;8.25;4.38;;;;;;;;;;5108536;28;20028;-67
2021/05/27 08:00:21;;;;;;;10.68;4.35;;;;;;;;;;5110337;28;20024;-67
2021/05/27 08:02:48;;;;;;;6.75;3.90;;;;;;;;;;5106258;28;20047;-68
2021/05/27 08:05:14;;;;;;;6.90;4.15;;;;;;;;;;5109316;28;20445;-71
2021/05/27 08:07:41;;;;;;;6.35;3.72;;;;;;;;;;5109110;28;20429;-71
2021/05/27 08:10:07;;;;;;;7.78;4.43;;;;;;;;;;5107528;28;20855;-71
2021/05/27 08:12:34;;;;;;;8.30;4.47;;;;;;;;;;5107080;28;20023;-72
2021/05/27 08:15:00;;;;;;;6.30;4.03;;;;;;;;;;5108101;28;20016;-71
2021/05/27 08:17:27;;;;;;;5.82;3.53;;;;;;;;;;5107755;28;20488;-71
2021/05/27 08:19:53;;;;;;;8.02;4.30;;;;;;;;;;5108702;28;20024;-71
2021/05/27 08:22:20;;;;;;;6.63;4.13;;;;;;;;;;5106943;28;20047;-73
2021/05/27 08:24:47;;;;;;;6.80;3.72;;;;;;;;;;5108038;28;20103;-72
2021/05/27 08:27:13;;;;;;;9.15;4.78;;;;;;;;;;5106485;28;20028;-73
2021/05/27 08:29:39;;;;;;;6.85;3.80;;;;;;;;;;5108451;28;20020;-70
2021/05/27 08:32:06;;;;;;;7.55;3.88;;;;;;;;;;5108372;28;20031;-70
2021/05/27 08:34:32;;;;;;;6.55;3.38;;;;;;;;;;5097004;28;20026;-70
2021/05/27 08:38:28;;;;;;;8.98;3.97;;;;;;;;;;5108927;27;21359;-69
2021/05/27 08:40:57;;;;;;;6.97;3.70;;;;;;;;;;5109601;28;20031;-68
2021/05/27 08:44:24;;;;;;;7.82;4.30;;;;;;;;;;5109659;27;20388;-69
2021/05/27 08:46:50;;;;;;;8.00;4.38;;;;;;;;;;5108780;28;20028;-69
2021/05/27 08:49:16;;;;;;;12.80;4.90;;;;;;;;;;5108476;28;20535;-69
2021/05/27 08:51:43;;;;;;;9.20;4.78;;;;;;;;;;5108662;28;20023;-70
2021/05/27 08:54:09;;;;;;;7.65;4.10;;;;;;;;;;5105016;28;20024;-70
2021/05/27 08:56:36;;;;;;;9.20;4.80;;;;;;;;;;5107517;28;20024;-69
2021/05/27 08:59:02;;;;;;;7.20;4.15;;;;;;;;;;5107905;28;20023;-70
2021/05/27 09:01:29;;;;;;;9.32;4.63;;;;;;;;;;5108418;28;20042;-70
2021/05/27 09:04:23;;;;;;;8.85;4.82;;;;;;;;;;5107176;27;20389;-70
2021/05/27 09:06:50;;;;;;;8.20;4.63;;;;;;;;;;5116328;28;20031;-65
2021/05/27 09:09:16;;;;;;;8.23;4.25;;;;;;;;;;5129841;28;20030;-66
2021/05/27 09:11:46;;;;;;;8.30;4.13;;;;;;;;;;5128020;28;20499;-68
2021/05/27 09:14:12;;;;;;;7.38;4.00;;;;;;;;;;5129020;28;20031;-67
2021/05/27 09:16:39;;;;;;;7.43;4.20;;;;;;;;;;5129175;28;20023;-69
2021/05/27 09:19:19;;;;;;;9.27;4.05;;;;;;;;;;5127614;28;20077;-68
2021/05/27 09:21:45;;;;;;;9.18;4.60;;;;;;;;;;5130411;28;20459;-68
2021/05/27 09:24:12;;;;;;;7.25;3.58;;;;;;;;;;5128814;28;20063;-69
2021/05/27 09:26:54;;;;;;;7.93;3.85;;;;;;;;;;5129109;28;20016;-69
2021/05/27 09:29:22;;;;;;;7.60;3.42;;;;;;;;;;5129560;28;20102;-69
2021/05/27 09:31:58;;;;;;;9.32;4.20;;;;;;;;;;5130027;28;20016;-67
2021/05/27 09:34:45;;;;;;;7.72;3.78;;;;;;;;;;5128154;28;20031;-69
2021/05/27 09:37:31;;;;;;;9.45;3.55;;;;;;;;;;5129278;28;20031;-68
2021/05/27 09:39:58;;;;;;;8.15;5.40;;;;;;;;;;5128933;27;20383;-68
2021/05/27 09:42:25;;;;;;;7.63;4.03;;;;;;;;;;5128816;28;20050;-68
2021/05/27 09:44:52;;;;;;;8.00;4.00;;;;;;;;;;5129982;28;20032;-67
2021/05/27 09:47:38;;;;;;;7.45;3.53;;;;;;;;;;5129556;28;20023;-67
2021/05/27 09:50:08;;;;;;;7.80;4.25;;;;;;;;;;5128034;28;20027;-67
2021/05/27 09:52:39;;;;;;;6.47;3.67;;;;;;;;;;5129527;28;20023;-66
2021/05/27 09:55:08;;;;;;;11.00;4.07;;;;;;;;;;5129527;28;20103;-67
2021/05/27 09:57:34;;;;;;;10.48;4.75;;;;;;;;;;5127179;28;20024;-67
2021/05/27 10:00:01;;;;;;;8.02;4.30;;;;;;;;;;5129508;28;20028;-67
2021/05/27 10:02:28;;;;;;;7.43;3.83;;;;;;;;;;5128877;28;20157;-68
2021/05/27 10:04:56;;;;;;;10.10;5.25;;;;;;;;;;5129489;28;20030;-66
2021/05/27 10:07:36;;;;;;;7.60;3.25;;;;;;;;;;5129078;28;20027;-66
2021/05/27 10:10:04;;;;;;;5.68;3.90;;;;;;;;;;5127414;28;20530;-65
2021/05/27 10:12:36;;;;;;;8.00;4.03;;;;;;;;;;5129214;28;20050;-72
2021/05/27 10:15:02;;;;;;;5.63;3.67;;;;;;;;;;5118272;28;20028;-72
2021/05/27 10:17:28;;;;;;;5.25;3.05;;;;;;;;;;5115068;28;20020;-72
2021/05/27 10:19:54;;;;;;;9.40;2.90;;;;;;;;;;5095230;28;20074;-70
2021/05/27 10:22:21;;;;;;;8.55;3.88;;;;;;;;;;5093615;28;20032;-73
2021/05/27 10:24:48;;;;;;;6.75;3.45;;;;;;;;;;5092734;28;20039;-70
2021/05/27 10:27:15;;;;;;;7.85;3.83;;;;;;;;;;5093811;28;20025;-74
2021/05/27 10:29:41;;;;;;;7.82;4.30;;;;;;;;;;5094824;28;20389;-72
2021/05/27 10:32:09;;;;;;;7.07;3.92;;;;;;;;;;5094342;28;20020;-71
2021/05/27 10:34:42;;;;;;;8.32;4.20;;;;;;;;;;5092787;28;20031;-74
2021/05/27 10:37:09;;;;;;;8.85;3.40;;;;;;;;;;5093515;28;20020;-72
2021/05/27 10:39:36;;;;;;;7.35;3.70;;;;;;;;;;5094216;28;20028;-72
2021/05/27 10:42:03;;;;;;;9.35;5.20;;;;;;;;;;5094551;28;20016;-73
2021/05/27 10:44:29;;;;;;;7.43;4.10;;;;;;;;;;5094200;28;20104;-73
2021/05/27 10:46:55;;;;;;;6.05;3.42;;;;;;;;;;5094332;28;20024;-72
2021/05/27 10:49:45;;;;;;;7.93;3.45;;;;;;;;;;5094197;28;20035;-73
2021/05/27 10:52:33;;;;;;;6.38;3.00;;;;;;;;;;5093895;28;20016;-72
2021/05/27 10:54:59;;;;;;;7.10;3.10;;;;;;;;;;5094253;28;20051;-72
2021/05/27 10:57:40;;;;;;;7.45;3.47;;;;;;;;;;5093898;28;20020;-73
2021/05/27 11:00:16;;;;;;;5.95;3.83;;;;;;;;;;5093895;28;20035;-74
2021/05/27 11:02:42;;;;;;;9.10;4.93;;;;;;;;;;5093949;28;20047;-73
2021/05/27 11:05:15;;;;;;;8.93;4.85;;;;;;;;;;5094166;28;20099;-71
2021/05/27 11:07:41;;;;;;;7.28;3.72;;;;;;;;;;5093522;28;20542;-73
2021/05/27 11:10:28;;;;;;;6.30;3.00;;;;;;;;;;5093718;28;20016;-72
2021/05/27 11:13:01;;;;;;;7.93;3.90;;;;;;;;;;5092072;28;20035;-72
2021/05/27 11:15:27;;;;;;;10.25;3.13;;;;;;;;;;5091862;28;20030;-75
2021/05/27 11:18:01;;;;;;;8.52;3.22;;;;;;;;;;5094238;28;20099;-74
2021/05/27 11:20:31;;;;;;;8.43;3.63;;;;;;;;;;5093990;28;20020;-73
2021/05/27 11:23:21;;;;;;;4.32;2.58;;;;;;;;;;5094515;28;20425;-75
2021/05/27 11:25:48;;;;;;;7.55;3.50;;;;;;;;;;5093287;28;20017;-72
2021/05/27 11:28:14;;;;;;;6.68;3.20;;;;;;;;;;5092482;28;20073;-71
2021/05/27 11:30:40;;;;;;;7.75;3.63;;;;;;;;;;5092130;28;20381;-71
2021/05/27 11:33:06;;;;;;;6.43;3.35;;;;;;;;;;5090867;28;20024;-71
2021/05/27 11:35:39;;;;;;;6.85;3.70;;;;;;;;;;5090384;28;20066;-71
2021/05/27 11:38:13;;;;;;;7.72;3.60;;;;;;;;;;5092431;28;20020;-71
2021/05/27 11:40:43;;;;;;;9.98;3.80;;;;;;;;;;5092140;28;20552;-70
2021/05/27 11:43:10;;;;;;;7.18;3.60;;;;;;;;;;5112821;28;20418;-70
2021/05/27 11:45:41;;;;;;;7.97;3.70;;;;;;;;;;5113786;28;20015;-70
2021/05/27 11:48:19;;;;;;;6.30;3.10;;;;;;;;;;5113459;28;20032;-69
2021/05/27 11:50:46;;;;;;;7.30;3.53;;;;;;;;;;5113350;28;20015;-70
2021/05/27 11:53:12;;;;;;;7.18;3.03;;;;;;;;;;5112194;28;20557;-70
2021/05/27 11:55:39;;;;;;;10.93;3.28;;;;;;;;;;5113322;28;20027;-71
2021/05/27 11:58:05;;;;;;;6.28;3.50;;;;;;;;;;5112313;28;20448;-70
2021/05/27 12:00:32;;;;;;;9.15;3.65;;;;;;;;;;5110090;28;20135;-71
2021/05/27 12:03:00;;;;;;;6.20;3.17;;;;;;;;;;5111646;28;20408;-71
2021/05/27 12:05:27;;;;;;;8.57;3.92;;;;;;;;;;5113042;28;20077;-69
2021/05/27 12:08:06;;;;;;;6.85;3.17;;;;;;;;;;5112610;28;20032;-71
2021/05/27 12:10:34;;;;;;;6.57;3.25;;;;;;;;;;5111414;28;20421;-71
2021/05/27 12:13:00;;;;;;;5.18;3.33;;;;;;;;;;5111144;28;20020;-70
2021/05/27 12:15:27;;;;;;;6.47;2.95;;;;;;;;;;5112534;28;20027;-71
2021/05/27 12:17:56;;;;;;;7.20;3.33;;;;;;;;;;5112773;28;20065;-71
2021/05/27 12:20:30;;;;;;;6.60;2.85;;;;;;;;;;5112990;28;20491;-70
2021/05/27 12:22:57;;;;;;;9.18;3.15;;;;;;;;;;5111977;28;20040;-72
2021/05/27 12:25:25;;;;;;;6.72;3.30;;;;;;;;;;5112650;28;20416;-72
2021/05/27 12:27:52;;;;;;;7.32;3.33;;;;;;;;;;5112426;28;20016;-72
2021/05/27 12:30:20;;;;;;;6.28;3.22;;;;;;;;;;5109736;28;20031;-72
2021/05/27 12:32:47;;;;;;;6.30;2.92;;;;;;;;;;5112246;28;20045;-72
2021/05/27 12:35:18;;;;;;;7.07;2.92;;;;;;;;;;5112724;28;20031;-71
2021/05/27 12:37:48;;;;;;;7.75;3.40;;;;;;;;;;5112220;28;20104;-71
2021/05/27 12:40:22;;;;;;;7.07;3.15;;;;;;;;;;5113264;28;20027;-72
2021/05/27 12:42:48;;;;;;;6.43;3.10;;;;;;;;;;5113347;28;20031;-72
2021/05/27 12:45:24;;;;;;;7.50;3.28;;;;;;;;;;5111410;28;20384;-72
2021/05/27 12:48:07;;;;;;;5.93;3.33;;;;;;;;;;5111660;28;20027;-71
2021/05/27 12:50:34;;;;;;;7.70;3.40;;;;;;;;;;5111682;28;20043;-72
2021/05/27 12:53:00;;;;;;;8.38;3.92;;;;;;;;;;5112592;28;20034;-72
2021/05/27 12:55:27;;;;;;;5.13;3.45;;;;;;;;;;5112944;28;20027;-72
2021/05/27 12:57:55;;;;;;;6.28;2.95;;;;;;;;;;5113083;28;20391;-72
2021/05/27 13:00:21;;;;;;;7.88;3.25;;;;;;;;;;5112650;28;20039;-72
2021/05/27 13:03:00;;;;;;;8.43;3.97;;;;;;;;;;5112896;28;20097;-72
2021/05/27 13:05:26;;;;;;;10.27;3.75;;;;;;;;;;5112538;28;20050;-72
2021/05/27 13:07:59;;;;;;;7.43;4.00;;;;;;;;;;5111619;28;20116;-72
2021/05/27 13:10:36;;;;;;;8.95;3.63;;;;;;;;;;5112955;28;20489;-72
2021/05/27 13:13:02;;;;;;;6.63;3.80;;;;;;;;;;5111464;28;20161;-72
2021/05/27 13:15:29;;;;;;;6.53;3.63;;;;;;;;;;5112865;28;20016;-70
2021/05/27 13:18:11;;;;;;;6.72;3.55;;;;;;;;;;5111357;28;20039;-72
2021/05/27 13:20:56;;;;;;;10.40;3.65;;;;;;;;;;5112832;28;20028;-70
2021/05/27 13:23:23;;;;;;;8.50;3.85;;;;;;;;;;5112954;28;20028;-72
2021/05/27 13:25:49;;;;;;;7.38;3.72;;;;;;;;;;5112574;28;20076;-70
2021/05/27 13:28:26;;;;;;;10.85;3.72;;;;;;;;;;5112259;28;20027;-73
2021/05/27 13:30:54;;;;;;;6.10;3.38;;;;;;;;;;5111304;28;20058;-69
2021/05/27 13:33:20;;;;;;;6.22;3.30;;;;;;;;;;5112358;28;20020;-69
2021/05/27 13:35:52;;;;;;;5.68;3.35;;;;;;;;;;5112521;28;20027;-70
2021/05/27 13:38:21;;;;;;;6.95;3.50;;;;;;;;;;5112689;28;20480;-69
2021/05/27 13:40:48;;;;;;;5.60;3.17;;;;;;;;;;5112516;28;20522;-69
2021/05/27 13:43:15;;;;;;;8.05;3.03;;;;;;;;;;5112607;28;20092;-69
2021/05/27 13:45:41;;;;;;;7.20;3.22;;;;;;;;;;5112524;28;20020;-70
2021/05/27 13:48:08;;;;;;;8.30;3.10;;;;;;;;;;5112131;28;20085;-70
2021/05/27 13:50:35;;;;;;;9.18;3.35;;;;;;;;;;5115289;28;20072;-71
2021/05/27 13:53:06;;;;;;;6.40;3.53;;;;;;;;;;5115065;28;20024;-70
2021/05/27 13:55:33;;;;;;;6.43;2.97;;;;;;;;;;5115944;28;20542;-71
2021/05/27 13:58:01;;;;;;;10.93;4.10;;;;;;;;;;5114951;28;20040;-70
2021/05/27 14:00:27;;;;;;;10.75;3.58;;;;;;;;;;5115062;28;20472;-70
2021/05/27 14:02:54;;;;;;;6.82;3.17;;;;;;;;;;5115568;28;20524;-69
2021/05/27 14:05:20;;;;;;;5.95;3.05;;;;;;;;;;5114698;28;20016;-70
2021/05/27 14:07:50;;;;;;;7.25;3.70;;;;;;;;;;5114815;28;20364;-70
2021/05/27 14:10:16;;;;;;;7.80;3.53;;;;;;;;;;5115788;28;20020;-69
2021/05/27 14:12:43;;;;;;;7.22;3.50;;;;;;;;;;5116060;28;20023;-71
2021/05/27 14:15:10;;;;;;;6.32;3.35;;;;;;;;;;5114569;28;20384;-70
2021/05/27 14:17:36;;;;;;;7.45;3.65;;;;;;;;;;5115642;28;20106;-71
2021/05/27 14:20:03;;;;;;;8.85;3.67;;;;;;;;;;5116048;28;20024;-69
2021/05/27 14:22:29;;;;;;;7.10;3.65;;;;;;;;;;5115828;28;20031;-70
2021/05/27 14:24:55;;;;;;;6.82;3.55;;;;;;;;;;5115882;28;20024;-69
2021/05/27 14:27:21;;;;;;;11.38;4.13;;;;;;;;;;5114517;28;20020;-69
2021/05/27 14:29:49;;;;;;;8.98;3.80;;;;;;;;;;5115276;28;20081;-70
2021/05/27 14:32:16;;;;;;;7.40;3.80;;;;;;;;;;5115850;28;20031;-69
2021/05/27 14:34:42;;;;;;;11.88;4.38;;;;;;;;;;5114244;28;20433;-69
2021/05/27 14:37:08;;;;;;;9.02;4.53;;;;;;;;;;5115345;28;20098;-70
2021/05/27 14:39:35;;;;;;;14.55;4.47;;;;;;;;;;5114238;28;20066;-69
2021/05/27 14:42:01;;;;;;;8.07;4.10;;;;;;;;;;5115597;28;20022;-70
2021/05/27 14:44:28;;;;;;;6.22;3.47;;;;;;;;;;5114869;28;20027;-70
2021/05/27 14:46:54;;;;;;;10.75;4.38;;;;;;;;;;5115294;28;20068;-68
2021/05/27 14:49:21;;;;;;;7.82;4.07;;;;;;;;;;5115295;28;20026;-68
2021/05/27 14:51:47;;;;;;;9.43;4.07;;;;;;;;;;5114772;28;20016;-71
2021/05/27 14:54:13;;;;;;;7.50;3.90;;;;;;;;;;5115160;28;20051;-69
2021/05/27 14:56:39;;;;;;;8.90;3.97;;;;;;;;;;5113824;28;20047;-71
2021/05/27 14:59:06;;;;;;;6.72;3.83;;;;;;;;;;5113405;28;20414;-71
2021/05/27 15:01:32;;;;;;;9.45;3.90;;;;;;;;;;5115179;28;20043;-71
2021/05/27 15:03:58;;;;;;;6.38;4.05;;;;;;;;;;5114850;28;20054;-69
2021/05/27 15:06:24;;;;;;;11.20;4.13;;;;;;;;;;5114469;28;20423;-71
2021/05/27 15:08:50;;;;;;;11.75;4.40;;;;;;;;;;5114806;28;20028;-70
2021/05/27 15:11:17;;;;;;;6.90;3.67;;;;;;;;;;5114804;28;20050;-71
2021/05/27 15:13:43;;;;;;;15.10;4.22;;;;;;;;;;5113109;28;20027;-70
2021/05/27 15:16:09;;;;;;;7.00;3.75;;;;;;;;;;5113437;28;20428;-70
2021/05/27 15:18:35;;;;;;;10.23;4.68;;;;;;;;;;5114641;28;20467;-71
2021/05/27 15:21:03;;;;;;;8.75;3.70;;;;;;;;;;5114395;28;20027;-72
2021/05/27 15:23:30;;;;;;;10.43;4.20;;;;;;;;;;5113356;28;20057;-72
2021/05/27 15:25:56;;;;;;;8.55;4.03;;;;;;;;;;5114173;28;20020;-72
2021/05/27 15:28:23;;;;;;;6.57;4.22;;;;;;;;;;5114546;28;20070;-72
2021/05/27 15:30:49;;;;;;;7.55;4.47;;;;;;;;;;5114514;28;20016;-72
2021/05/27 15:33:15;;;;;;;7.25;3.97;;;;;;;;;;5114109;28;20380;-72
2021/05/27 15:35:41;;;;;;;9.23;4.25;;;;;;;;;;5113024;28;20020;-73
2021/05/27 15:38:07;;;;;;;10.90;4.53;;;;;;;;;;5113054;28;20031;-72
2021/05/27 15:40:34;;;;;;;11.95;5.60;;;;;;;;;;5113969;28;20027;-72
2021/05/27 15:43:00;;;;;;;12.38;5.57;;;;;;;;;;5114337;28;20102;-72
2021/05/27 15:45:27;;;;;;;14.15;5.32;;;;;;;;;;5114155;28;20077;-72
2021/05/27 15:47:53;;;;;;;10.25;5.20;;;;;;;;;;5113682;28;20020;-71
2021/05/27 15:50:28;;;;;;;14.25;7.50;;;;;;;;;;5113995;28;20024;-71
2021/05/27 15:52:54;;;;;;;10.35;5.90;;;;;;;;;;5112685;28;20472;-72
2021/05/27 15:55:20;;;;;;;10.57;5.95;;;;;;;;;;5112171;28;20096;-71
2021/05/27 15:57:46;;;;;;;10.85;5.53;;;;;;;;;;5113919;28;20494;-72
2021/05/27 16:00:13;;;;;;;12.88;6.28;;;;;;;;;;5114052;28;20039;-71
2021/05/27 16:02:39;;;;;;;13.25;6.47;;;;;;;;;;5113495;28;20047;-70
2021/05/27 16:05:05;;;;;;;14.35;6.50;;;;;;;;;;5113882;28;20023;-70
2021/05/27 16:09:04;;;;;;;11.27;7.03;;;;;;;;;;5142997;27;20416;-70
2021/05/27 16:11:30;;;;;;;11.27;6.72;;;;;;;;;;5110417;28;20039;-70
2021/05/27 16:13:56;;;;;;;10.93;5.97;;;;;;;;;;5110448;28;20050;-70
2021/05/27 16:16:22;;;;;;;10.27;6.00;;;;;;;;;;5109992;28;20024;-71